Terminal Aerodrome Forecast
Issued by NWS

Home | Current Version | Previous Version | Text Only | Print | Product List | Glossary On
Versions: 1 2 3 4 5 6 7 8 9 10 11 12 13 14 15 16 17 18 19 20 21 22 23 24 25
000
FTUS45 KLKN 201500 AAA
TAFTPH
TAF AMD
KTPH 201512Z 2015/2112 VRB05KT P6SM VCTS BKN080CB OVC100
      TEMPO 2015/2019 VRB15G30KT -TSRA BKN070CB
     FM201900 17010G20KT P6SM -TSRA SCT100CB
     FM210200 VRB06KT P6SM VCTS BKN100CB=

USA.gov is the U.S. government's official web portal to all federal, state and local government web resources and services.